createdAt,value
2022-11-15T00:00:28.775Z,449.00
2022-11-15T00:01:23.843Z,450.00
2022-11-15T00:02:18.912Z,444.00
2022-11-15T00:03:13.958Z,444.00
2022-11-15T00:04:09.340Z,446.00
2022-11-15T00:05:04.464Z,449.00
2022-11-15T00:05:59.660Z,445.00
2022-11-15T00:06:54.777Z,447.00
2022-11-15T00:07:55.622Z,448.00
2022-11-15T00:08:46.155Z,445.00
2022-11-15T00:09:45.807Z,446.00
2022-11-15T00:10:37.325Z,450.00
2022-11-15T00:11:31.510Z,454.00
2022-11-15T00:12:26.596Z,449.00
2022-11-15T00:13:21.716Z,456.00
2022-11-15T00:14:16.723Z,451.00
2022-11-15T00:15:11.790Z,451.00
2022-11-15T00:16:06.907Z,451.00
2022-11-15T00:17:01.961Z,453.00
2022-11-15T00:17:57.103Z,448.00
2022-11-15T00:18:57.396Z,451.00
2022-11-15T00:19:52.619Z,447.00
2022-11-15T00:20:48.050Z,449.00
2022-11-15T00:21:43.853Z,444.00
2022-11-15T00:22:38.880Z,451.00
2022-11-15T00:23:34.210Z,448.00
2022-11-15T00:24:30.427Z,447.00
2022-11-15T00:25:25.713Z,451.00
2022-11-15T00:26:21.563Z,451.00
2022-11-15T00:27:16.608Z,442.00
2022-11-15T00:28:11.760Z,440.00
2022-11-15T00:29:07.609Z,447.00
2022-11-15T00:30:02.813Z,447.00
2022-11-15T00:30:58.594Z,445.00
2022-11-15T00:31:53.836Z,440.00
2022-11-15T00:32:49.176Z,449.00
2022-11-15T00:33:44.893Z,448.00
2022-11-15T00:34:40.088Z,447.00
2022-11-15T00:35:35.228Z,448.00
2022-11-15T00:36:31.610Z,453.00
2022-11-15T00:37:26.758Z,446.00
2022-11-15T00:38:22.549Z,443.00
2022-11-15T00:39:17.652Z,446.00
2022-11-15T00:40:12.754Z,446.00
2022-11-15T00:41:09.918Z,447.00
2022-11-15T00:42:03.833Z,442.00
2022-11-15T00:42:59.755Z,437.00
2022-11-15T00:43:54.892Z,443.00
2022-11-15T00:44:50.043Z,448.00
2022-11-15T00:45:45.980Z,445.00
2022-11-15T00:46:41.121Z,443.00
2022-11-15T00:47:36.471Z,448.00
2022-11-15T00:48:32.562Z,445.00
2022-11-15T00:49:27.772Z,440.00
2022-11-15T00:50:23.600Z,444.00
2022-11-15T00:51:18.728Z,445.00
2022-11-15T00:53:40.576Z,447.00
2022-11-15T00:54:33.778Z,447.00
2022-11-15T00:55:29.771Z,449.00
2022-11-15T00:56:24.226Z,449.00
2022-11-15T00:57:19.416Z,447.00
2022-11-15T00:58:14.642Z,446.00
2022-11-15T00:59:09.758Z,447.00
2022-11-15T01:00:05.011Z,441.00
2022-11-15T01:01:00.120Z,445.00
2022-11-15T01:01:55.198Z,454.00
2022-11-15T01:02:50.396Z,455.00
2022-11-15T01:03:45.723Z,459.00
2022-11-15T01:04:40.815Z,454.00
2022-11-15T01:05:36.053Z,454.00
2022-11-15T01:06:31.139Z,455.00
2022-11-15T01:07:26.381Z,454.00
2022-11-15T01:08:21.463Z,458.00
2022-11-15T01:09:16.712Z,458.00
2022-11-15T01:10:11.704Z,460.00
2022-11-15T01:11:06.966Z,455.00
2022-11-15T01:12:02.061Z,454.00
2022-11-15T01:12:57.264Z,459.00
2022-11-15T01:13:52.648Z,455.00
2022-11-15T01:14:47.800Z,462.00
2022-11-15T01:15:42.853Z,465.00
2022-11-15T01:16:37.938Z,463.00
2022-11-15T01:17:33.146Z,470.00
2022-11-15T01:18:28.330Z,465.00
2022-11-15T01:19:23.546Z,461.00
2022-11-15T01:20:18.766Z,471.00
2022-11-15T01:21:13.909Z,465.00
2022-11-15T01:22:09.055Z,470.00
2022-11-15T01:23:04.320Z,466.00
2022-11-15T01:23:59.675Z,474.00
2022-11-15T01:24:54.764Z,468.00
2022-11-15T01:25:49.995Z,477.00
2022-11-15T01:26:45.147Z,471.00
2022-11-15T01:27:40.328Z,472.00
2022-11-15T01:28:35.591Z,476.00
2022-11-15T01:29:30.726Z,476.00
2022-11-15T01:30:26.103Z,476.00
2022-11-15T01:31:21.016Z,477.00
2022-11-15T01:32:16.232Z,471.00
2022-11-15T01:33:11.465Z,481.00
2022-11-15T01:34:06.784Z,483.00
2022-11-15T01:35:01.876Z,483.00
2022-11-15T01:35:57.270Z,487.00
2022-11-15T01:36:52.214Z,485.00
2022-11-15T01:37:47.433Z,486.00
2022-11-15T01:38:42.498Z,491.00
2022-11-15T01:39:37.709Z,489.00
2022-11-15T01:40:32.898Z,483.00
2022-11-15T01:41:28.244Z,485.00
2022-11-15T01:42:23.183Z,486.00
2022-11-15T01:43:18.446Z,484.00
2022-11-15T01:44:13.775Z,486.00
2022-11-15T01:45:08.842Z,477.00
2022-11-15T01:46:04.063Z,488.00
2022-11-15T01:46:59.253Z,482.00
2022-11-15T01:47:54.358Z,482.00
2022-11-15T01:48:49.565Z,478.00
2022-11-15T01:49:44.653Z,471.00
2022-11-15T01:50:39.844Z,472.00
2022-11-15T01:51:35.090Z,472.00
2022-11-15T01:52:30.198Z,472.00
2022-11-15T01:53:25.409Z,469.00
2022-11-15T01:54:20.748Z,466.00
2022-11-15T01:55:15.828Z,469.00
2022-11-15T01:56:11.016Z,465.00
2022-11-15T01:57:06.252Z,468.00
2022-11-15T01:58:02.050Z,472.00
2022-11-15T01:58:56.574Z,468.00
2022-11-15T01:59:51.796Z,476.00
2022-11-15T02:00:47.014Z,461.00
2022-11-15T02:01:42.202Z,471.00
2022-11-15T02:02:37.330Z,470.00
2022-11-15T02:03:32.779Z,468.00
2022-11-15T02:04:27.668Z,469.00
2022-11-15T02:05:22.779Z,473.00
2022-11-15T02:06:17.831Z,465.00
2022-11-15T02:07:13.209Z,466.00
2022-11-15T02:08:08.186Z,468.00
2022-11-15T02:09:03.264Z,470.00
2022-11-15T02:09:58.334Z,465.00
2022-11-15T02:10:53.533Z,471.00
2022-11-15T02:11:48.744Z,470.00
2022-11-15T02:12:43.835Z,471.00
2022-11-15T02:13:38.999Z,463.00
2022-11-15T02:14:34.358Z,468.00
2022-11-15T02:15:29.553Z,460.00
2022-11-15T02:16:24.608Z,471.00
2022-11-15T02:17:19.757Z,466.00
2022-11-15T02:18:15.392Z,476.00
2022-11-15T02:19:10.001Z,479.00
2022-11-15T02:20:05.167Z,467.00
2022-11-15T02:21:00.216Z,474.00
2022-11-15T02:21:55.471Z,472.00
2022-11-15T02:22:51.376Z,475.00
2022-11-15T02:23:45.755Z,474.00
2022-11-15T02:24:40.953Z,475.00
2022-11-15T02:25:36.018Z,472.00
2022-11-15T02:26:31.207Z,479.00
2022-11-15T02:27:26.569Z,470.00
2022-11-15T02:28:21.540Z,478.00
2022-11-15T02:29:16.602Z,477.00
2022-11-15T02:30:11.680Z,471.00
2022-11-15T02:31:06.868Z,493.00
2022-11-15T02:32:02.217Z,466.00
2022-11-15T02:32:57.173Z,466.00
2022-11-15T02:33:52.358Z,470.00
2022-11-15T02:34:47.677Z,477.00
2022-11-15T02:35:42.764Z,478.00
2022-11-15T02:36:37.987Z,485.00
2022-11-15T02:37:33.054Z,482.00
2022-11-15T02:38:28.242Z,479.00
2022-11-15T02:39:23.413Z,485.00
2022-11-15T02:40:19.043Z,481.00
2022-11-15T02:41:13.693Z,479.00
2022-11-15T02:42:08.927Z,474.00
2022-11-15T02:43:08.141Z,474.00
2022-11-15T02:43:59.332Z,478.00
2022-11-15T02:44:54.425Z,474.00
2022-11-15T02:45:49.610Z,478.00
2022-11-15T02:46:45.083Z,469.00
2022-11-15T02:47:40.569Z,478.00
2022-11-15T02:48:35.135Z,472.00
2022-11-15T02:49:30.301Z,468.00
2022-11-15T02:50:25.373Z,472.00
2022-11-15T02:51:20.758Z,468.00
2022-11-15T02:52:15.807Z,477.00
2022-11-15T02:53:10.928Z,469.00
2022-11-15T02:54:06.070Z,466.00
2022-11-15T02:55:01.295Z,468.00
2022-11-15T02:55:56.578Z,476.00
2022-11-15T02:56:51.618Z,472.00
2022-11-15T02:57:46.698Z,475.00
2022-11-15T02:58:41.874Z,475.00
2022-11-15T02:59:37.075Z,474.00
2022-11-15T03:00:32.214Z,473.00
2022-11-15T03:01:27.300Z,473.00
2022-11-15T03:02:23.391Z,472.00
2022-11-15T03:03:17.543Z,465.00
2022-11-15T03:04:13.572Z,473.00
2022-11-15T03:05:07.802Z,469.00
2022-11-15T03:06:02.991Z,471.00
2022-11-15T03:06:58.375Z,471.00
2022-11-15T03:07:56.873Z,474.00
2022-11-15T03:08:49.451Z,468.00
2022-11-15T03:09:43.582Z,470.00
2022-11-15T03:10:38.768Z,470.00
2022-11-15T03:11:34.200Z,466.00
2022-11-15T03:12:29.854Z,466.00
2022-11-15T03:13:24.398Z,465.00
2022-11-15T03:14:19.816Z,462.00
2022-11-15T03:15:15.608Z,464.00
2022-11-15T03:16:10.785Z,468.00
2022-11-15T03:17:05.898Z,469.00
2022-11-15T03:18:01.121Z,465.00
2022-11-15T03:18:57.296Z,468.00
2022-11-15T03:19:51.441Z,470.00
2022-11-15T03:20:46.746Z,466.00
2022-11-15T03:21:41.804Z,469.00
2022-11-15T03:22:36.907Z,475.00
2022-11-15T03:23:32.470Z,467.00
2022-11-15T03:24:27.448Z,470.00
2022-11-15T03:25:22.581Z,468.00
2022-11-15T03:26:18.509Z,470.00
2022-11-15T03:27:13.615Z,475.00
2022-11-15T03:28:08.568Z,475.00
2022-11-15T03:29:04.374Z,473.00
2022-11-15T03:29:59.618Z,469.00
2022-11-15T03:30:54.952Z,469.00
2022-11-15T03:31:51.650Z,462.00
2022-11-15T03:32:46.334Z,466.00
2022-11-15T03:33:42.130Z,465.00
2022-11-15T03:34:37.319Z,485.00
2022-11-15T03:35:32.539Z,471.00
2022-11-15T03:36:28.224Z,472.00
2022-11-15T03:37:23.491Z,469.00
2022-11-15T03:38:19.382Z,470.00
2022-11-15T03:39:20.175Z,471.00
2022-11-15T03:40:10.867Z,477.00
2022-11-15T03:41:05.617Z,481.00
2022-11-15T03:42:00.717Z,473.00
2022-11-15T03:42:55.865Z,474.00
2022-11-15T03:43:52.324Z,474.00
2022-11-15T03:44:47.581Z,471.00
2022-11-15T03:45:43.541Z,469.00
2022-11-15T03:46:38.603Z,471.00
2022-11-15T03:47:33.741Z,474.00
2022-11-15T03:48:29.556Z,470.00
2022-11-15T03:49:24.683Z,475.00
2022-11-15T03:50:20.474Z,473.00
2022-11-15T03:51:15.542Z,470.00
2022-11-15T03:52:10.815Z,475.00
2022-11-15T03:53:06.474Z,473.00
2022-11-15T03:54:01.606Z,468.00
2022-11-15T03:54:56.887Z,469.00
2022-11-15T03:55:53.100Z,469.00
2022-11-15T03:56:48.340Z,467.00
2022-11-15T03:57:44.170Z,467.00
2022-11-15T03:58:39.260Z,468.00
2022-11-15T03:59:34.429Z,473.00
2022-11-15T04:00:30.249Z,470.00
2022-11-15T04:01:25.386Z,475.00
2022-11-15T04:02:21.342Z,476.00
2022-11-15T04:03:16.439Z,480.00
2022-11-15T04:04:11.846Z,475.00
2022-11-15T04:05:07.650Z,482.00
2022-11-15T04:06:02.861Z,471.00
2022-11-15T04:06:58.114Z,477.00
2022-11-15T04:07:54.358Z,475.00
2022-11-15T04:08:49.486Z,477.00
2022-11-15T04:09:45.325Z,480.00
2022-11-15T04:10:40.679Z,488.00
2022-11-15T04:11:36.172Z,484.00
2022-11-15T04:12:31.843Z,480.00
2022-11-15T04:13:26.865Z,488.00
2022-11-15T04:14:22.788Z,485.00
2022-11-15T04:15:17.936Z,485.00
2022-11-15T04:16:13.282Z,480.00
2022-11-15T04:17:08.866Z,484.00
2022-11-15T04:18:04.188Z,486.00
2022-11-15T04:18:59.330Z,481.00
2022-11-15T04:19:55.934Z,489.00
2022-11-15T04:20:51.101Z,479.00
2022-11-15T04:21:46.887Z,482.00
2022-11-15T04:22:42.135Z,488.00
2022-11-15T04:23:37.279Z,484.00
2022-11-15T04:24:33.279Z,489.00
2022-11-15T04:25:32.111Z,490.00
2022-11-15T04:26:23.564Z,490.00
2022-11-15T04:27:18.737Z,489.00
2022-11-15T04:28:13.877Z,495.00
2022-11-15T04:29:08.916Z,492.00
2022-11-15T04:30:03.952Z,500.00
2022-11-15T04:30:59.000Z,506.00
2022-11-15T04:31:53.995Z,504.00
2022-11-15T04:32:48.997Z,507.00
2022-11-15T04:33:44.068Z,496.00
2022-11-15T04:34:39.116Z,501.00
2022-11-15T04:35:34.116Z,498.00
2022-11-15T04:36:29.295Z,493.00
2022-11-15T04:37:24.318Z,496.00
2022-11-15T04:38:19.325Z,496.00
2022-11-15T04:39:14.421Z,496.00
2022-11-15T04:40:09.432Z,494.00
2022-11-15T04:41:04.552Z,502.00
2022-11-15T04:41:59.721Z,494.00
2022-11-15T04:42:57.189Z,494.00
2022-11-15T04:43:50.790Z,494.00
2022-11-15T04:44:44.872Z,492.00
2022-11-15T04:45:40.656Z,495.00
2022-11-15T04:46:35.840Z,501.00
2022-11-15T04:47:30.970Z,501.00
2022-11-15T04:48:26.409Z,505.00
2022-11-15T04:49:21.469Z,503.00
2022-11-15T04:50:16.687Z,501.00
2022-11-15T04:51:12.691Z,501.00
2022-11-15T04:52:07.851Z,503.00
2022-11-15T04:53:03.249Z,504.00
2022-11-15T04:53:58.279Z,511.00
2022-11-15T04:54:53.344Z,506.00
2022-11-15T04:55:48.502Z,517.00
2022-11-15T04:56:43.604Z,507.00
2022-11-15T04:57:38.898Z,506.00
2022-11-15T04:58:34.038Z,509.00
2022-11-15T04:59:32.952Z,507.00
2022-11-15T05:00:28.179Z,508.00
2022-11-15T05:01:23.473Z,507.00
2022-11-15T05:02:18.598Z,510.00
2022-11-15T05:03:13.861Z,508.00
2022-11-15T05:04:09.142Z,509.00
2022-11-15T05:05:04.475Z,511.00
2022-11-15T05:05:59.538Z,509.00
2022-11-15T05:06:54.737Z,514.00
2022-11-15T05:07:50.469Z,521.00
2022-11-15T05:08:45.603Z,519.00
2022-11-15T05:09:41.390Z,514.00
2022-11-15T05:10:36.636Z,516.00
2022-11-15T05:11:31.849Z,513.00
2022-11-15T05:12:27.702Z,516.00
2022-11-15T05:13:22.798Z,510.00
2022-11-15T05:14:17.910Z,512.00
2022-11-15T05:15:14.306Z,517.00
2022-11-15T05:16:09.700Z,515.00
2022-11-15T05:17:05.386Z,515.00
2022-11-15T05:18:00.518Z,524.00
2022-11-15T05:18:56.185Z,519.00
2022-11-15T05:19:51.718Z,521.00
2022-11-15T05:20:46.744Z,530.00
2022-11-15T05:21:42.731Z,525.00
2022-11-15T05:22:37.760Z,526.00
2022-11-15T05:23:33.488Z,518.00
2022-11-15T05:24:29.292Z,524.00
2022-11-15T05:25:24.337Z,511.00
2022-11-15T05:26:19.610Z,516.00
2022-11-15T05:27:15.978Z,512.00
2022-11-15T05:28:11.271Z,509.00
2022-11-15T05:29:07.156Z,508.00
2022-11-15T05:30:02.440Z,500.00
2022-11-15T05:30:57.878Z,503.00
2022-11-15T05:31:53.469Z,499.00
2022-11-15T05:32:48.705Z,504.00
2022-11-15T05:33:44.567Z,494.00
2022-11-15T05:34:39.786Z,492.00
2022-11-15T05:35:35.157Z,489.00
2022-11-15T05:36:30.929Z,492.00
2022-11-15T05:37:26.035Z,497.00
2022-11-15T05:38:21.139Z,499.00
2022-11-15T05:39:17.585Z,496.00
2022-11-15T05:40:12.936Z,495.00
2022-11-15T05:41:08.646Z,496.00
2022-11-15T05:42:03.854Z,497.00
2022-11-15T05:42:59.051Z,497.00
2022-11-15T05:43:55.036Z,502.00
2022-11-15T05:44:50.101Z,501.00
2022-11-15T05:45:45.838Z,500.00
2022-11-15T05:46:40.964Z,501.00
2022-11-15T05:47:36.311Z,506.00
2022-11-15T05:48:31.863Z,496.00
2022-11-15T05:49:27.163Z,501.00
2022-11-15T05:50:22.321Z,493.00
2022-11-15T05:51:18.761Z,491.00
2022-11-15T05:52:13.954Z,498.00
2022-11-15T05:53:09.779Z,491.00
2022-11-15T05:54:04.886Z,499.00
2022-11-15T05:55:00.024Z,496.00
2022-11-15T05:55:55.840Z,511.00
2022-11-15T05:56:51.164Z,522.00
2022-11-15T05:57:47.139Z,507.00
2022-11-15T05:58:43.139Z,500.00
2022-11-15T05:59:37.580Z,492.00
2022-11-15T06:00:33.504Z,495.00
2022-11-15T06:01:28.650Z,494.00
2022-11-15T06:02:23.958Z,495.00
2022-11-15T06:03:20.274Z,502.00
2022-11-15T06:04:15.404Z,499.00
2022-11-15T06:05:11.265Z,508.00
2022-11-15T06:06:06.670Z,508.00
2022-11-15T06:07:02.079Z,507.00
2022-11-15T06:07:57.164Z,508.00
2022-11-15T06:08:52.401Z,515.00
2022-11-15T06:09:48.864Z,525.00
2022-11-15T06:10:44.283Z,542.00
2022-11-15T06:11:39.924Z,530.00
2022-11-15T06:12:35.131Z,534.00
2022-11-15T06:13:30.781Z,528.00
2022-11-15T06:14:26.293Z,527.00
2022-11-15T06:15:22.467Z,530.00
2022-11-15T06:16:17.431Z,522.00
2022-11-15T06:17:12.525Z,533.00
2022-11-15T06:18:07.812Z,539.00
2022-11-15T06:19:03.531Z,529.00
2022-11-15T06:19:58.849Z,534.00
2022-11-15T06:20:54.310Z,541.00
2022-11-15T06:21:50.519Z,538.00
2022-11-15T06:22:45.830Z,557.00
2022-11-15T06:23:42.490Z,542.00
2022-11-15T06:24:38.242Z,539.00
2022-11-15T06:25:32.756Z,530.00
2022-11-15T06:26:27.958Z,527.00
2022-11-15T06:27:23.316Z,523.00
2022-11-15T06:28:18.675Z,523.00
2022-11-15T06:29:15.505Z,525.00
2022-11-15T06:30:10.856Z,532.00
2022-11-15T06:31:07.181Z,566.00
2022-11-15T06:32:01.555Z,552.00
2022-11-15T06:32:56.626Z,534.00
2022-11-15T06:33:51.726Z,532.00
2022-11-15T06:34:46.789Z,531.00
2022-11-15T06:35:41.888Z,527.00
2022-11-15T06:36:36.990Z,535.00
2022-11-15T06:37:32.051Z,538.00
2022-11-15T06:38:27.174Z,535.00
2022-11-15T06:39:22.276Z,553.00
2022-11-15T06:40:19.194Z,552.00
2022-11-15T06:41:14.411Z,543.00
2022-11-15T06:42:09.788Z,531.00
2022-11-15T06:43:05.150Z,535.00
2022-11-15T06:44:00.234Z,537.00
2022-11-15T06:44:55.202Z,549.00
2022-11-15T06:45:50.215Z,536.00
2022-11-15T06:46:45.223Z,531.00
2022-11-15T06:47:40.358Z,533.00
2022-11-15T06:48:35.332Z,551.00
2022-11-15T06:49:32.613Z,547.00
2022-11-15T06:50:27.628Z,535.00
2022-11-15T06:51:22.587Z,551.00
2022-11-15T06:52:19.721Z,546.00
2022-11-15T06:53:12.815Z,550.00
2022-11-15T06:54:08.287Z,544.00
2022-11-15T06:55:02.765Z,554.00
2022-11-15T06:55:57.765Z,565.00
2022-11-15T06:56:52.811Z,595.00
2022-11-15T06:57:47.806Z,556.00
2022-11-15T06:58:42.865Z,539.00
2022-11-15T06:59:40.672Z,532.00
2022-11-15T07:00:33.233Z,531.00
2022-11-15T07:01:28.868Z,527.00
2022-11-15T07:02:24.143Z,516.00
2022-11-15T07:03:19.587Z,520.00
2022-11-15T07:04:17.488Z,511.00
2022-11-15T07:05:12.816Z,511.00
2022-11-15T07:06:08.262Z,509.00
2022-11-15T07:07:03.769Z,513.00
2022-11-15T07:07:59.279Z,504.00
2022-11-15T07:08:54.819Z,502.00
2022-11-15T07:09:50.850Z,501.00
2022-11-15T07:10:44.953Z,500.00
2022-11-15T07:11:40.021Z,509.00
2022-11-15T07:12:35.110Z,500.00
2022-11-15T07:13:30.809Z,490.00
2022-11-15T07:14:25.317Z,486.00
2022-11-15T07:15:20.379Z,487.00
2022-11-15T07:16:15.525Z,489.00
2022-11-15T07:17:10.574Z,484.00
2022-11-15T07:18:05.676Z,493.00
2022-11-15T07:19:00.758Z,491.00
2022-11-15T07:19:56.077Z,492.00
2022-11-15T07:20:51.489Z,494.00
2022-11-15T07:21:47.738Z,488.00
2022-11-15T07:22:42.391Z,482.00
2022-11-15T07:23:37.903Z,484.00
2022-11-15T07:24:33.677Z,524.00
2022-11-15T07:25:29.295Z,499.00
2022-11-15T07:26:24.391Z,507.00
2022-11-15T07:27:19.876Z,496.00
2022-11-15T07:28:15.324Z,497.00
2022-11-15T07:29:10.715Z,479.00
2022-11-15T07:30:06.242Z,489.00
2022-11-15T07:31:01.723Z,489.00
2022-11-15T07:31:58.208Z,507.00
2022-11-15T07:32:53.642Z,495.00
2022-11-15T07:33:49.173Z,490.00
2022-11-15T07:34:44.872Z,495.00
2022-11-15T07:35:40.327Z,491.00
2022-11-15T07:36:35.879Z,485.00
2022-11-15T07:37:30.888Z,489.00
2022-11-15T07:38:25.893Z,485.00
2022-11-15T07:39:21.378Z,494.00
2022-11-15T07:40:15.885Z,491.00
2022-11-15T07:41:10.991Z,491.00
2022-11-15T07:42:06.166Z,491.00
2022-11-15T07:43:01.155Z,487.00
2022-11-15T07:43:56.249Z,489.00
2022-11-15T07:44:55.295Z,491.00
2022-11-15T07:45:53.512Z,482.00
2022-11-15T07:46:46.515Z,485.00
2022-11-15T07:47:40.707Z,686.00
2022-11-15T07:48:44.044Z,580.00
2022-11-15T07:49:33.337Z,625.00
2022-11-15T07:50:27.790Z,589.00
2022-11-15T07:51:23.113Z,606.00
2022-11-15T07:52:18.602Z,598.00
2022-11-15T07:53:14.173Z,575.00
2022-11-15T07:54:09.648Z,577.00
2022-11-15T07:55:05.101Z,560.00
2022-11-15T07:56:00.470Z,589.00
2022-11-15T07:56:55.916Z,596.00
2022-11-15T07:57:51.394Z,575.00
2022-11-15T07:58:46.827Z,524.00
2022-11-15T07:59:42.393Z,621.00
2022-11-15T08:00:37.833Z,604.00
2022-11-15T08:01:32.936Z,571.00
2022-11-15T08:02:30.614Z,530.00
2022-11-15T08:03:23.209Z,502.00
2022-11-15T08:04:17.987Z,499.00
2022-11-15T08:05:13.128Z,493.00
2022-11-15T08:06:08.086Z,481.00
2022-11-15T08:07:03.330Z,478.00
2022-11-15T08:07:59.142Z,488.00
2022-11-15T08:08:54.414Z,486.00
2022-11-15T08:09:49.395Z,478.00
2022-11-15T08:10:44.545Z,495.00
2022-11-15T08:11:40.620Z,489.00
2022-11-15T08:12:35.929Z,481.00
2022-11-15T08:13:31.559Z,484.00
2022-11-15T08:14:26.667Z,488.00
2022-11-15T08:15:22.894Z,481.00
2022-11-15T08:16:18.261Z,495.00
2022-11-15T08:17:13.650Z,487.00
2022-11-15T08:18:09.052Z,486.00
2022-11-15T08:19:04.432Z,494.00
2022-11-15T08:19:59.930Z,517.00
2022-11-15T08:20:55.351Z,497.00
2022-11-15T08:21:50.721Z,504.00
2022-11-15T08:22:46.102Z,499.00
2022-11-15T08:23:41.476Z,486.00
2022-11-15T08:24:37.298Z,486.00
2022-11-15T08:25:31.640Z,510.00
2022-11-15T08:26:27.610Z,509.00
2022-11-15T08:27:21.717Z,504.00
2022-11-15T08:28:16.763Z,493.00
2022-11-15T08:29:11.874Z,507.00
2022-11-15T08:30:06.961Z,506.00
2022-11-15T08:31:04.904Z,505.00
2022-11-15T08:31:59.650Z,519.00
2022-11-15T08:32:54.766Z,519.00
2022-11-15T08:33:49.840Z,516.00
2022-11-15T08:34:44.944Z,515.00
2022-11-15T08:35:39.935Z,517.00
2022-11-15T08:36:44.606Z,513.00
2022-11-15T08:37:31.108Z,516.00
2022-11-15T08:38:25.116Z,511.00
2022-11-15T08:39:20.213Z,512.00
2022-11-15T08:40:15.274Z,496.00
2022-11-15T08:41:10.594Z,488.00
2022-11-15T08:42:05.422Z,480.00
2022-11-15T08:43:00.552Z,489.00
2022-11-15T08:43:55.993Z,483.00
2022-11-15T08:44:51.352Z,502.00
2022-11-15T08:45:46.762Z,502.00
2022-11-15T08:46:42.266Z,507.00
2022-11-15T08:47:37.792Z,537.00
2022-11-15T08:48:33.504Z,513.00
2022-11-15T08:49:28.722Z,506.00
2022-11-15T08:50:24.245Z,517.00
2022-11-15T08:51:19.472Z,510.00
2022-11-15T08:52:14.900Z,497.00
2022-11-15T08:53:10.344Z,494.00
2022-11-15T08:54:07.413Z,509.00
2022-11-15T08:55:01.937Z,498.00
2022-11-15T08:55:57.328Z,501.00
2022-11-15T08:56:52.711Z,501.00
2022-11-15T08:57:48.139Z,502.00
2022-11-15T08:58:43.507Z,498.00
2022-11-15T08:59:38.984Z,498.00
2022-11-15T09:00:34.415Z,491.00
2022-11-15T09:01:30.124Z,501.00
2022-11-15T09:02:25.636Z,497.00
2022-11-15T09:03:20.857Z,498.00
2022-11-15T09:04:15.715Z,499.00
2022-11-15T09:05:10.807Z,495.00
2022-11-15T09:06:05.884Z,505.00
2022-11-15T09:07:01.046Z,496.00
2022-11-15T09:07:56.036Z,496.00
2022-11-15T09:08:51.210Z,498.00
2022-11-15T09:09:48.559Z,496.00
2022-11-15T09:10:43.952Z,497.00
2022-11-15T09:11:39.405Z,506.00
2022-11-15T09:12:34.905Z,510.00
2022-11-15T09:13:30.408Z,504.00
2022-11-15T09:14:25.895Z,505.00
2022-11-15T09:15:21.335Z,500.00
2022-11-15T09:16:16.719Z,504.00
2022-11-15T09:17:12.213Z,503.00
2022-11-15T09:18:07.629Z,508.00
2022-11-15T09:19:06.416Z,505.00
2022-11-15T09:19:59.540Z,494.00
2022-11-15T09:20:54.000Z,500.00
2022-11-15T09:21:49.469Z,511.00
2022-11-15T09:22:45.275Z,503.00
2022-11-15T09:23:40.327Z,503.00
2022-11-15T09:24:35.321Z,500.00
2022-11-15T09:25:30.342Z,521.00
2022-11-15T09:26:25.436Z,524.00
2022-11-15T09:27:20.477Z,532.00
2022-11-15T09:28:15.637Z,544.00
2022-11-15T09:29:10.651Z,542.00
2022-11-15T09:30:05.726Z,546.00
2022-11-15T09:31:00.711Z,553.00
2022-11-15T09:31:55.837Z,562.00
2022-11-15T09:32:50.902Z,564.00
2022-11-15T09:33:46.025Z,584.00
2022-11-15T09:34:41.088Z,558.00
2022-11-15T09:35:36.122Z,556.00
2022-11-15T09:36:31.227Z,558.00
2022-11-15T09:37:27.165Z,546.00
2022-11-15T09:38:21.434Z,539.00
2022-11-15T09:39:16.530Z,534.00
2022-11-15T09:40:11.712Z,525.00
2022-11-15T09:41:07.533Z,524.00
2022-11-15T09:42:02.381Z,520.00
2022-11-15T09:42:58.256Z,513.00
2022-11-15T09:43:53.743Z,508.00
2022-11-15T09:44:49.269Z,501.00
2022-11-15T09:45:44.810Z,507.00
2022-11-15T09:46:41.022Z,502.00
2022-11-15T09:47:35.649Z,500.00
2022-11-15T09:48:31.384Z,505.00
2022-11-15T09:49:26.612Z,504.00
2022-11-15T09:50:21.882Z,505.00
2022-11-15T09:51:17.381Z,516.00
2022-11-15T09:52:12.727Z,510.00
2022-11-15T09:53:07.759Z,521.00
2022-11-15T09:54:45.488Z,514.00
2022-11-15T09:54:58.800Z,508.00
2022-11-15T09:55:52.865Z,517.00
2022-11-15T09:56:47.920Z,514.00
2022-11-15T09:57:43.097Z,505.00
2022-11-15T09:58:37.994Z,507.00
2022-11-15T09:59:33.069Z,510.00
2022-11-15T10:01:24.189Z,504.00
2022-11-15T10:02:22.278Z,508.00
2022-11-15T10:03:17.333Z,508.00
2022-11-15T10:04:12.773Z,513.00
2022-11-15T10:05:08.233Z,518.00
2022-11-15T10:06:03.640Z,528.00
2022-11-15T10:06:59.287Z,527.00
2022-11-15T10:07:54.555Z,524.00
2022-11-15T10:08:50.090Z,527.00
2022-11-15T10:09:45.503Z,522.00
2022-11-15T10:10:40.942Z,522.00
2022-11-15T10:11:38.120Z,528.00
2022-11-15T10:12:31.840Z,523.00
2022-11-15T10:13:27.161Z,528.00
2022-11-15T10:14:22.578Z,520.00
2022-11-15T10:15:18.058Z,526.00
2022-11-15T10:16:13.172Z,527.00
2022-11-15T10:17:08.188Z,514.00
2022-11-15T10:18:03.233Z,522.00
2022-11-15T10:18:58.337Z,521.00
2022-11-15T10:19:53.458Z,518.00
2022-11-15T10:20:48.507Z,517.00
2022-11-15T10:21:44.180Z,517.00
2022-11-15T10:22:39.201Z,519.00
2022-11-15T10:23:33.677Z,532.00
2022-11-15T10:24:29.356Z,522.00
2022-11-15T10:25:25.201Z,526.00
2022-11-15T10:26:20.342Z,523.00
2022-11-15T10:27:15.672Z,512.00
2022-11-15T10:28:10.713Z,501.00
2022-11-15T10:29:06.553Z,511.00
2022-11-15T10:30:02.054Z,517.00
2022-11-15T10:30:57.604Z,517.00
2022-11-15T10:31:53.150Z,516.00
2022-11-15T10:32:48.457Z,514.00
2022-11-15T10:33:43.864Z,515.00
2022-11-15T10:36:04.230Z,511.00
2022-11-15T10:36:59.554Z,508.00
2022-11-15T10:37:54.986Z,516.00
2022-11-15T10:38:50.424Z,515.00
2022-11-15T10:39:45.876Z,513.00
2022-11-15T10:40:41.283Z,521.00
2022-11-15T10:41:36.731Z,517.00
2022-11-15T10:42:32.151Z,519.00
2022-11-15T10:43:27.570Z,507.00
2022-11-15T10:44:23.037Z,517.00
2022-11-15T10:45:18.457Z,520.00
2022-11-15T10:46:44.521Z,550.00
2022-11-15T10:47:10.611Z,547.00
2022-11-15T10:48:05.141Z,547.00
2022-11-15T10:49:00.749Z,541.00
2022-11-15T10:49:56.423Z,540.00
2022-11-15T10:50:51.790Z,537.00
2022-11-15T10:51:47.303Z,540.00
2022-11-15T10:52:42.660Z,532.00
2022-11-15T10:53:38.606Z,526.00
2022-11-15T10:54:33.478Z,523.00
2022-11-15T10:55:28.865Z,526.00
2022-11-15T10:56:24.315Z,524.00
2022-11-15T10:57:19.616Z,526.00
2022-11-15T10:58:15.016Z,524.00
2022-11-15T10:59:10.556Z,509.00
2022-11-15T11:00:06.214Z,516.00
2022-11-15T11:01:01.640Z,518.00
2022-11-15T11:01:57.114Z,518.00
2022-11-15T11:02:52.639Z,525.00
2022-11-15T11:03:48.159Z,518.00
2022-11-15T11:04:43.636Z,522.00
2022-11-15T11:05:42.172Z,533.00
2022-11-15T11:06:34.531Z,512.00
2022-11-15T11:07:30.311Z,499.00
2022-11-15T11:08:25.507Z,511.00
2022-11-15T11:09:20.991Z,507.00
2022-11-15T11:10:44.191Z,509.00
2022-11-15T11:11:13.065Z,498.00
2022-11-15T11:12:07.526Z,503.00
2022-11-15T11:13:03.061Z,511.00
2022-11-15T11:13:58.445Z,517.00
2022-11-15T11:14:53.866Z,514.00
2022-11-15T11:15:49.288Z,508.00
2022-11-15T11:16:44.689Z,512.00
2022-11-15T11:17:40.372Z,508.00
2022-11-15T11:18:35.779Z,506.00
2022-11-15T11:19:31.187Z,508.00
2022-11-15T11:20:26.700Z,518.00
2022-11-15T11:21:25.671Z,506.00
2022-11-15T11:22:18.518Z,520.00
2022-11-15T11:23:12.933Z,511.00
2022-11-15T11:24:08.450Z,512.00
2022-11-15T11:25:03.917Z,503.00
2022-11-15T11:26:00.095Z,498.00
2022-11-15T11:26:57.169Z,502.00
2022-11-15T11:27:50.558Z,493.00
2022-11-15T11:28:46.121Z,517.00
2022-11-15T11:29:41.539Z,501.00
2022-11-15T11:30:36.915Z,499.00
2022-11-15T11:31:32.397Z,500.00
2022-11-15T11:32:27.897Z,514.00
2022-11-15T11:33:23.536Z,509.00
2022-11-15T11:34:19.020Z,527.00